Cascade, West Virginia
Current Conditions -  °F | °C
As of 4:53 PM on Thursday 23 Oct 2014 (Local Time) from KMGW Reporting Station
Broken Clouds Broken Clouds  
Wind Chill: 60°   Ceiling: 4200
Heat Index: 60°   Visibility: 10mi
Dew Point: 41°   Wind: 8mph
Humidity: 49%   Direction: 310°NW
Pressure: 30.07"   Gusts: 17mph
Location:  39.5803°N, 79.7924°W
Report Text: KMGW 232053Z 31007G15KT 10SM BKN042 16/05 A3007 RMK AO2 SLP181 T01560050 56010
Loading
Personal Weather Stations






























Interactive Weather Map
Tropical Storm Tracking
New forecast layout! Learn more

10-Day Weather Forecast

Advertisements
Track Severe Weather on mobile